sensor_id;sensor_type;location;lat;lon;timestamp;pressure;altitude;pressure_sealevel;temperature;humidity
70976;BME280;58635;51.198;6.010;2023-02-22T00:00:21;101349.34;;;10.60;66.19
70976;BME280;58635;51.198;6.010;2023-02-22T00:02:50;101345.16;;;10.59;66.21
70976;BME280;58635;51.198;6.010;2023-02-22T00:05:17;101346.56;;;10.62;66.30
70976;BME280;58635;51.198;6.010;2023-02-22T00:07:47;101344.78;;;10.62;66.42
70976;BME280;58635;51.198;6.010;2023-02-22T00:10:14;101343.47;;;10.66;66.11
70976;BME280;58635;51.198;6.010;2023-02-22T00:12:49;101338.44;;;10.65;66.44
70976;BME280;58635;51.198;6.010;2023-02-22T00:15:16;101333.91;;;10.67;66.42
70976;BME280;58635;51.198;6.010;2023-02-22T00:17:42;101331.50;;;10.65;66.50
70976;BME280;58635;51.198;6.010;2023-02-22T00:20:10;101341.84;;;10.65;66.35
70976;BME280;58635;51.198;6.010;2023-02-22T00:22:42;101341.50;;;10.68;66.56
70976;BME280;58635;51.198;6.010;2023-02-22T00:25:08;101340.16;;;10.72;66.33
70976;BME280;58635;51.198;6.010;2023-02-22T00:27:35;101341.75;;;10.73;66.26
70976;BME280;58635;51.198;6.010;2023-02-22T00:30:01;101342.91;;;10.71;66.35
70976;BME280;58635;51.198;6.010;2023-02-22T00:32:26;101347.28;;;10.70;66.43
70976;BME280;58635;51.198;6.010;2023-02-22T00:34:55;101349.50;;;10.73;66.44
70976;BME280;58635;51.198;6.010;2023-02-22T00:37:20;101346.75;;;10.75;66.38
70976;BME280;58635;51.198;6.010;2023-02-22T00:39:47;101341.22;;;10.78;66.36
70976;BME280;58635;51.198;6.010;2023-02-22T00:42:12;101342.66;;;10.80;66.37
70976;BME280;58635;51.198;6.010;2023-02-22T00:44:38;101338.88;;;10.83;66.12
70976;BME280;58635;51.198;6.010;2023-02-22T00:47:03;101336.13;;;10.84;66.41
70976;BME280;58635;51.198;6.010;2023-02-22T00:49:29;101346.47;;;10.84;66.23
70976;BME280;58635;51.198;6.010;2023-02-22T00:51:54;101333.53;;;10.84;66.44
70976;BME280;58635;51.198;6.010;2023-02-22T00:54:20;101339.31;;;10.87;66.13
70976;BME280;58635;51.198;6.010;2023-02-22T00:56:45;101339.31;;;10.87;66.27
70976;BME280;58635;51.198;6.010;2023-02-22T00:59:11;101330.94;;;10.84;66.20
70976;BME280;58635;51.198;6.010;2023-02-22T01:01:36;101318.19;;;10.83;66.17
70976;BME280;58635;51.198;6.010;2023-02-22T01:04:02;101315.59;;;10.83;66.22
70976;BME280;58635;51.198;6.010;2023-02-22T01:06:27;101318.78;;;10.85;66.52
70976;BME280;58635;51.198;6.010;2023-02-22T01:08:53;101313.63;;;10.85;66.21
70976;BME280;58635;51.198;6.010;2023-02-22T01:11:19;101303.28;;;10.85;66.19
70976;BME280;58635;51.198;6.010;2023-02-22T01:13:46;101305.25;;;10.83;66.35
70976;BME280;58635;51.198;6.010;2023-02-22T01:16:12;101304.00;;;10.79;66.44
70976;BME280;58635;51.198;6.010;2023-02-22T01:18:38;101299.38;;;10.74;66.65
70976;BME280;58635;51.198;6.010;2023-02-22T01:21:04;101302.94;;;10.73;66.66
70976;BME280;58635;51.198;6.010;2023-02-22T01:23:29;101300.53;;;10.72;66.71
70976;BME280;58635;51.198;6.010;2023-02-22T01:25:55;101298.38;;;10.75;66.80
70976;BME280;58635;51.198;6.010;2023-02-22T01:28:21;101295.59;;;10.77;66.43
70976;BME280;58635;51.198;6.010;2023-02-22T01:30:47;101301.44;;;10.79;66.47
70976;BME280;58635;51.198;6.010;2023-02-22T01:33:13;101298.19;;;10.77;66.63
70976;BME280;58635;51.198;6.010;2023-02-22T01:35:40;101295.78;;;10.75;66.66
70976;BME280;58635;51.198;6.010;2023-02-22T01:38:06;101299.97;;;10.76;66.79
70976;BME280;58635;51.198;6.010;2023-02-22T01:40:38;101298.84;;;10.79;66.73
70976;BME280;58635;51.198;6.010;2023-02-22T01:45:59;101284.13;;;10.79;66.58
70976;BME280;58635;51.198;6.010;2023-02-22T01:48:35;101289.47;;;10.78;66.81
70976;BME280;58635;51.198;6.010;2023-02-22T01:51:22;101280.72;;;10.79;66.65
70976;BME280;58635;51.198;6.010;2023-02-22T01:54:12;101284.13;;;10.79;66.66
70976;BME280;58635;51.198;6.010;2023-02-22T01:56:39;101286.09;;;10.77;66.72
70976;BME280;58635;51.198;6.010;2023-02-22T01:59:09;101288.69;;;10.77;66.63
70976;BME280;58635;51.198;6.010;2023-02-22T02:01:37;101282.50;;;10.78;66.66
70976;BME280;58635;51.198;6.010;2023-02-22T02:04:06;101276.69;;;10.76;66.85
70976;BME280;58635;51.198;6.010;2023-02-22T02:06:35;101281.25;;;10.74;66.97
70976;BME280;58635;51.198;6.010;2023-02-22T02:09:21;101279.66;;;10.73;66.81
70976;BME280;58635;51.198;6.010;2023-02-22T02:11:48;101269.06;;;10.68;66.75
70976;BME280;58635;51.198;6.010;2023-02-22T02:14:14;101272.44;;;10.69;66.86
70976;BME280;58635;51.198;6.010;2023-02-22T02:16:43;101275.03;;;10.69;66.95
70976;BME280;58635;51.198;6.010;2023-02-22T02:19:22;101274.25;;;10.68;66.87
70976;BME280;58635;51.198;6.010;2023-02-22T02:27:11;101262.53;;;10.72;67.04
70976;BME280;58635;51.198;6.010;2023-02-22T02:35:20;101242.72;;;10.79;66.93
70976;BME280;58635;51.198;6.010;2023-02-22T02:37:53;101246.91;;;10.80;67.10
70976;BME280;58635;51.198;6.010;2023-02-22T02:40:26;101256.06;;;10.83;66.67
70976;BME280;58635;51.198;6.010;2023-02-22T02:46:05;101250.09;;;10.82;66.63
70976;BME280;58635;51.198;6.010;2023-02-22T02:48:33;101240.38;;;10.84;66.46
70976;BME280;58635;51.198;6.010;2023-02-22T02:51:00;101252.31;;;10.86;66.64
70976;BME280;58635;51.198;6.010;2023-02-22T02:53:36;101243.56;;;10.87;66.63
70976;BME280;58635;51.198;6.010;2023-02-22T02:56:03;101243.38;;;10.88;66.47
70976;BME280;58635;51.198;6.010;2023-02-22T02:58:29;101248.75;;;10.87;66.66
70976;BME280;58635;51.198;6.010;2023-02-22T03:00:57;101244.19;;;10.89;66.57
70976;BME280;58635;51.198;6.010;2023-02-22T03:04:10;101245.16;;;10.88;66.35
70976;BME280;58635;51.198;6.010;2023-02-22T03:06:41;101240.00;;;10.88;66.18
70976;BME280;58635;51.198;6.010;2023-02-22T03:15:17;101232.91;;;10.75;66.06
70976;BME280;58635;51.198;6.010;2023-02-22T03:20:31;101232.72;;;10.76;66.11
70976;BME280;58635;51.198;6.010;2023-02-22T03:23:06;101232.91;;;10.75;66.15
70976;BME280;58635;51.198;6.010;2023-02-22T03:25:39;101226.72;;;10.76;66.21
70976;BME280;58635;51.198;6.010;2023-02-22T03:28:09;101223.53;;;10.74;66.06
70976;BME280;58635;51.198;6.010;2023-02-22T03:33:29;101220.91;;;10.67;66.16
70976;BME280;58635;51.198;6.010;2023-02-22T03:36:00;101215.91;;;10.66;66.22
70976;BME280;58635;51.198;6.010;2023-02-22T03:38:28;101228.66;;;10.67;66.03
70976;BME280;58635;51.198;6.010;2023-02-22T03:41:00;101218.50;;;10.66;66.11
70976;BME280;58635;51.198;6.010;2023-02-22T03:43:42;101216.72;;;10.66;66.12
70976;BME280;58635;51.198;6.010;2023-02-22T03:46:12;101212.69;;;10.64;66.05
70976;BME280;58635;51.198;6.010;2023-02-22T03:49:01;101205.09;;;10.62;66.08
70976;BME280;58635;51.198;6.010;2023-02-22T03:51:29;101203.50;;;10.61;66.00
70976;BME280;58635;51.198;6.010;2023-02-22T03:53:55;101203.31;;;10.63;66.09
70976;BME280;58635;51.198;6.010;2023-02-22T03:56:25;101200.53;;;10.64;66.04
70976;BME280;58635;51.198;6.010;2023-02-22T03:58:52;101202.50;;;10.62;65.91
70976;BME280;58635;51.198;6.010;2023-02-22T04:01:18;101198.94;;;10.63;65.82
70976;BME280;58635;51.198;6.010;2023-02-22T04:03:44;101200.72;;;10.63;66.00
70976;BME280;58635;51.198;6.010;2023-02-22T04:06:10;101196.72;;;10.60;65.95
70976;BME280;58635;51.198;6.010;2023-02-22T04:08:35;101201.47;;;10.57;66.00
70976;BME280;58635;51.198;6.010;2023-02-22T04:11:02;101193.09;;;10.54;65.84
70976;BME280;58635;51.198;6.010;2023-02-22T04:13:27;101197.63;;;10.52;65.82
70976;BME280;58635;51.198;6.010;2023-02-22T04:15:53;101185.88;;;10.50;65.92
70976;BME280;58635;51.198;6.010;2023-02-22T04:18:18;101191.84;;;10.50;65.78
70976;BME280;58635;51.198;6.010;2023-02-22T04:20:44;101184.28;;;10.49;65.75
70976;BME280;58635;51.198;6.010;2023-02-22T04:23:10;101178.31;;;10.48;65.90
70976;BME280;58635;51.198;6.010;2023-02-22T04:25:35;101174.91;;;10.48;65.83
70976;BME280;58635;51.198;6.010;2023-02-22T04:28:01;101182.69;;;10.48;65.90
70976;BME280;58635;51.198;6.010;2023-02-22T04:30:27;101180.09;;;10.48;65.75
70976;BME280;58635;51.198;6.010;2023-02-22T04:32:55;101174.31;;;10.46;65.78
70976;BME280;58635;51.198;6.010;2023-02-22T04:35:20;101172.53;;;10.46;65.73
70976;BME280;58635;51.198;6.010;2023-02-22T04:37:46;101172.69;;;10.45;65.94
70976;BME280;58635;51.198;6.010;2023-02-22T04:40:12;101169.50;;;10.43;65.72
70976;BME280;58635;51.198;6.010;2023-02-22T04:42:37;101166.28;;;10.41;65.79
70976;BME280;58635;51.198;6.010;2023-02-22T04:45:05;101164.34;;;10.43;65.96
70976;BME280;58635;51.198;6.010;2023-02-22T04:47:32;101159.97;;;10.43;65.78
70976;BME280;58635;51.198;6.010;2023-02-22T04:49:58;101163.34;;;10.44;65.66
70976;BME280;58635;51.198;6.010;2023-02-22T04:52:24;101158.19;;;10.44;65.90
70976;BME280;58635;51.198;6.010;2023-02-22T04:54:50;101158.97;;;10.44;65.72
70976;BME280;58635;51.198;6.010;2023-02-22T04:57:16;101155.94;;;10.41;65.62
70976;BME280;58635;51.198;6.010;2023-02-22T04:59:41;101157.38;;;10.43;65.86
70976;BME280;58635;51.198;6.010;2023-02-22T05:02:07;101147.03;;;10.43;65.78
70976;BME280;58635;51.198;6.010;2023-02-22T05:04:32;101138.63;;;10.41;65.84
70976;BME280;58635;51.198;6.010;2023-02-22T05:06:57;101136.41;;;10.38;65.65
70976;BME280;58635;51.198;6.010;2023-02-22T05:09:23;101138.81;;;10.40;65.84
70976;BME280;58635;51.198;6.010;2023-02-22T05:11:48;101130.63;;;10.36;65.81
70976;BME280;58635;51.198;6.010;2023-02-22T05:14:14;101132.84;;;10.39;65.75
70976;BME280;58635;51.198;6.010;2023-02-22T05:16:39;101124.66;;;10.36;65.73
70976;BME280;58635;51.198;6.010;2023-02-22T05:19:05;101118.50;;;10.37;65.67
70976;BME280;58635;51.198;6.010;2023-02-22T05:21:30;101116.91;;;10.36;65.80
70976;BME280;58635;51.198;6.010;2023-02-22T05:23:55;101113.53;;;10.35;65.77
70976;BME280;58635;51.198;6.010;2023-02-22T05:26:21;101123.69;;;10.37;65.70
70976;BME280;58635;51.198;6.010;2023-02-22T05:28:47;101114.13;;;10.37;65.83
70976;BME280;58635;51.198;6.010;2023-02-22T05:31:12;101110.75;;;10.37;65.87
70976;BME280;58635;51.198;6.010;2023-02-22T05:33:38;101112.53;;;10.36;65.66
70976;BME280;58635;51.198;6.010;2023-02-22T05:36:04;101112.44;;;10.30;65.79
70976;BME280;58635;51.198;6.010;2023-02-22T05:38:32;101110.44;;;10.25;65.82
70976;BME280;58635;51.198;6.010;2023-02-22T05:40:57;101103.19;;;10.20;66.04
70976;BME280;58635;51.198;6.010;2023-02-22T05:43:22;101102.41;;;10.20;65.90
70976;BME280;58635;51.198;6.010;2023-02-22T05:45:48;101108.38;;;10.20;65.98
70976;BME280;58635;51.198;6.010;2023-02-22T05:48:13;101100.97;;;10.17;65.94
70976;BME280;58635;51.198;6.010;2023-02-22T05:50:39;101096.97;;;10.15;66.04
70976;BME280;58635;51.198;6.010;2023-02-22T05:53:04;101098.56;;;10.16;65.97
70976;BME280;58635;51.198;6.010;2023-02-22T05:55:30;101095.78;;;10.17;66.42
70976;BME280;58635;51.198;6.010;2023-02-22T05:57:55;101095.78;;;10.17;66.03
70976;BME280;58635;51.198;6.010;2023-02-22T06:00:26;101094.66;;;10.20;66.05
70976;BME280;58635;51.198;6.010;2023-02-22T06:03:04;101088.22;;;10.16;65.79
70976;BME280;58635;51.198;6.010;2023-02-22T06:05:31;101083.63;;;10.11;65.83
70976;BME280;58635;51.198;6.010;2023-02-22T06:07:57;101084.31;;;10.05;65.64
70976;BME280;58635;51.198;6.010;2023-02-22T06:10:26;101080.69;;;10.00;65.96
70976;BME280;58635;51.198;6.010;2023-02-22T06:12:53;101075.72;;;9.98;65.94
70976;BME280;58635;51.198;6.010;2023-02-22T06:15:20;101081.88;;;9.97;66.07
70976;BME280;58635;51.198;6.010;2023-02-22T06:17:46;101074.31;;;9.95;66.00
70976;BME280;58635;51.198;6.010;2023-02-22T06:20:14;101079.19;;;9.90;65.85
70976;BME280;58635;51.198;6.010;2023-02-22T06:22:40;101069.84;;;9.89;66.00
70976;BME280;58635;51.198;6.010;2023-02-22T06:25:06;101076.81;;;9.89;65.85
70976;BME280;58635;51.198;6.010;2023-02-22T06:27:33;101074.78;;;9.84;65.96
70976;BME280;58635;51.198;6.010;2023-02-22T06:29:59;101078.06;;;9.78;65.98
70976;BME280;58635;51.198;6.010;2023-02-22T06:32:25;101077.19;;;9.71;66.06
70976;BME280;58635;51.198;6.010;2023-02-22T06:34:51;101069.44;;;9.71;66.08
70976;BME280;58635;51.198;6.010;2023-02-22T06:37:16;101081.00;;;9.75;66.12
70976;BME280;58635;51.198;6.010;2023-02-22T06:39:41;101080.03;;;9.76;65.88
70976;BME280;58635;51.198;6.010;2023-02-22T06:42:07;101078.00;;;9.72;65.75
70976;BME280;58635;51.198;6.010;2023-02-22T06:44:32;101064.72;;;9.75;66.15
70976;BME280;58635;51.198;6.010;2023-02-22T06:46:58;101076.84;;;9.74;65.78
70976;BME280;58635;51.198;6.010;2023-02-22T06:49:24;101078.63;;;9.74;65.70
70976;BME280;58635;51.198;6.010;2023-02-22T06:51:51;101079.59;;;9.73;65.63
70976;BME280;58635;51.198;6.010;2023-02-22T06:54:17;101075.75;;;9.68;65.45
70976;BME280;58635;51.198;6.010;2023-02-22T06:56:43;101072.13;;;9.63;65.68
70976;BME280;58635;51.198;6.010;2023-02-22T06:59:08;101072.50;;;9.60;65.67
70976;BME280;58635;51.198;6.010;2023-02-22T07:01:34;101069.09;;;9.59;65.74
70976;BME280;58635;51.198;6.010;2023-02-22T07:03:59;101073.09;;;9.62;65.52
70976;BME280;58635;51.198;6.010;2023-02-22T07:06:25;101073.91;;;9.62;65.61
70976;BME280;58635;51.198;6.010;2023-02-22T07:08:50;101071.13;;;9.64;65.42
70976;BME280;58635;51.198;6.010;2023-02-22T07:11:16;101071.03;;;9.57;65.28
70976;BME280;58635;51.198;6.010;2023-02-22T07:13:42;101067.78;;;9.49;65.55
70976;BME280;58635;51.198;6.010;2023-02-22T07:16:07;101067.13;;;9.47;65.61
70976;BME280;58635;51.198;6.010;2023-02-22T07:18:32;101068.47;;;9.43;65.63
70976;BME280;58635;51.198;6.010;2023-02-22T07:20:58;101061.72;;;9.42;65.85
70976;BME280;58635;51.198;6.010;2023-02-22T07:23:23;101061.53;;;9.43;65.62
70976;BME280;58635;51.198;6.010;2023-02-22T07:25:49;101062.94;;;9.46;65.63
70976;BME280;58635;51.198;6.010;2023-02-22T07:28:15;101063.59;;;9.48;65.44
70976;BME280;58635;51.198;6.010;2023-02-22T07:30:41;101065.63;;;9.52;65.44
70976;BME280;58635;51.198;6.010;2023-02-22T07:33:09;101068.94;;;9.61;65.49
70976;BME280;58635;51.198;6.010;2023-02-22T07:35:38;101066.41;;;9.67;65.29
70976;BME280;58635;51.198;6.010;2023-02-22T07:38:05;101064.09;;;9.73;65.24
70976;BME280;58635;51.198;6.010;2023-02-22T07:40:32;101063.56;;;9.77;65.32
70976;BME280;58635;51.198;6.010;2023-02-22T07:43:00;101068.81;;;9.84;65.08
70976;BME280;58635;51.198;6.010;2023-02-22T07:45:31;101068.44;;;9.87;64.94
70976;BME280;58635;51.198;6.010;2023-02-22T07:47:57;101073.41;;;9.88;64.82
70976;BME280;58635;51.198;6.010;2023-02-22T07:50:24;101072.06;;;9.92;64.88
70976;BME280;58635;51.198;6.010;2023-02-22T07:52:54;101069.75;;;9.98;64.63
70976;BME280;58635;51.198;6.010;2023-02-22T07:55:28;101071.59;;;10.04;64.35
70976;BME280;58635;51.198;6.010;2023-02-22T07:57:56;101063.50;;;10.07;64.09
70976;BME280;58635;51.198;6.010;2023-02-22T08:02:49;101066.50;;;10.10;63.88
70976;BME280;58635;51.198;6.010;2023-02-22T08:05:14;101067.13;;;10.12;63.92
70976;BME280;58635;51.198;6.010;2023-02-22T08:07:40;101069.94;;;10.17;64.08
70976;BME280;58635;51.198;6.010;2023-02-22T08:10:08;101066.41;;;10.18;63.64
70976;BME280;58635;51.198;6.010;2023-02-22T08:12:34;101063.00;;;10.18;63.46
70976;BME280;58635;51.198;6.010;2023-02-22T08:15:01;101059.25;;;10.20;63.52
70976;BME280;58635;51.198;6.010;2023-02-22T08:17:27;101068.81;;;10.20;63.58
70976;BME280;58635;51.198;6.010;2023-02-22T08:19:52;101063.63;;;10.20;63.52
70976;BME280;58635;51.198;6.010;2023-02-22T08:22:18;101066.84;;;10.22;63.46
70976;BME280;58635;51.198;6.010;2023-02-22T08:24:43;101064.63;;;10.19;63.58
70976;BME280;58635;51.198;6.010;2023-02-22T08:27:09;101066.75;;;10.15;63.40
70976;BME280;58635;51.198;6.010;2023-02-22T08:29:34;101057.97;;;10.10;63.44
70976;BME280;58635;51.198;6.010;2023-02-22T08:32:00;101061.53;;;10.09;63.57
70976;BME280;58635;51.198;6.010;2023-02-22T08:34:26;101060.78;;;10.15;63.79
70976;BME280;58635;51.198;6.010;2023-02-22T08:36:51;101064.69;;;10.25;63.73
70976;BME280;58635;51.198;6.010;2023-02-22T08:39:17;101061.63;;;10.37;63.48
70976;BME280;58635;51.198;6.010;2023-02-22T08:41:42;101050.56;;;10.43;63.19
70976;BME280;58635;51.198;6.010;2023-02-22T08:44:08;101063.59;;;10.56;63.26
70976;BME280;58635;51.198;6.010;2023-02-22T08:46:33;101058.47;;;10.63;63.05
70976;BME280;58635;51.198;6.010;2023-02-22T08:48:59;101056.75;;;10.70;62.76
70976;BME280;58635;51.198;6.010;2023-02-22T08:51:25;101053.59;;;10.74;62.73
70976;BME280;58635;51.198;6.010;2023-02-22T08:53:51;101062.22;;;10.81;62.73
70976;BME280;58635;51.198;6.010;2023-02-22T08:56:17;101059.66;;;10.88;62.44
70976;BME280;58635;51.198;6.010;2023-02-22T08:58:43;101055.34;;;10.95;62.35
70976;BME280;58635;51.198;6.010;2023-02-22T09:01:08;101055.19;;;11.03;62.46
70976;BME280;58635;51.198;6.010;2023-02-22T09:03:34;101053.81;;;11.07;62.16
70976;BME280;58635;51.198;6.010;2023-02-22T09:05:59;101060.41;;;11.10;62.09
70976;BME280;58635;51.198;6.010;2023-02-22T09:08:25;101047.84;;;11.07;62.14
70976;BME280;58635;51.198;6.010;2023-02-22T09:10:51;101046.84;;;11.08;62.04
70976;BME280;58635;51.198;6.010;2023-02-22T09:13:16;101049.44;;;11.08;62.12
70976;BME280;58635;51.198;6.010;2023-02-22T09:15:42;101041.91;;;11.13;62.06
70976;BME280;58635;51.198;6.010;2023-02-22T09:18:09;101034.19;;;11.20;62.17
70976;BME280;58635;51.198;6.010;2023-02-22T09:20:35;101029.84;;;11.27;61.98
70976;BME280;58635;51.198;6.010;2023-02-22T09:23:04;101029.47;;;11.36;61.89
70976;BME280;58635;51.198;6.010;2023-02-22T09:25:30;101031.09;;;11.44;61.82
70976;BME280;58635;51.198;6.010;2023-02-22T09:27:58;101030.34;;;11.50;61.63
70976;BME280;58635;51.198;6.010;2023-02-22T09:30:34;101028.56;;;11.57;61.33
70976;BME280;58635;51.198;6.010;2023-02-22T09:33:05;101022.81;;;11.62;61.55
70976;BME280;58635;51.198;6.010;2023-02-22T09:35:34;101021.25;;;11.67;61.53
70976;BME280;58635;51.198;6.010;2023-02-22T09:38:01;101016.88;;;11.75;61.22
70976;BME280;58635;51.198;6.010;2023-02-22T09:40:29;101021.72;;;11.84;61.12
70976;BME280;58635;51.198;6.010;2023-02-22T09:45:40;101022.94;;;11.88;61.09
70976;BME280;58635;51.198;6.010;2023-02-22T09:48:13;101018.94;;;11.92;60.94
70976;BME280;58635;51.198;6.010;2023-02-22T09:50:41;101015.78;;;11.97;60.75
70976;BME280;58635;51.198;6.010;2023-02-22T09:53:23;101009.41;;;12.06;60.73
70976;BME280;58635;51.198;6.010;2023-02-22T09:55:59;101017.78;;;12.15;60.47
70976;BME280;58635;51.198;6.010;2023-02-22T09:58:35;101006.44;;;12.22;60.33
70976;BME280;58635;51.198;6.010;2023-02-22T10:01:30;101006.44;;;12.36;60.45
70976;BME280;58635;51.198;6.010;2023-02-22T10:06:53;101003.66;;;12.57;60.29
70976;BME280;58635;51.198;6.010;2023-02-22T10:09:25;100998.66;;;12.69;60.10
70976;BME280;58635;51.198;6.010;2023-02-22T10:12:04;100999.22;;;12.77;60.03
70976;BME280;58635;51.198;6.010;2023-02-22T10:14:47;101000.03;;;12.84;59.70
70976;BME280;58635;51.198;6.010;2023-02-22T10:22:49;100998.72;;;13.13;59.14
70976;BME280;58635;51.198;6.010;2023-02-22T10:25:19;100999.34;;;13.22;59.09
70976;BME280;58635;51.198;6.010;2023-02-22T10:30:56;100989.13;;;13.34;58.34
70976;BME280;58635;51.198;6.010;2023-02-22T10:33:26;100986.09;;;13.37;58.32
70976;BME280;58635;51.198;6.010;2023-02-22T10:35:54;100988.88;;;13.42;58.41
70976;BME280;58635;51.198;6.010;2023-02-22T10:43:19;100990.78;;;13.60;57.78
70976;BME280;58635;51.198;6.010;2023-02-22T10:45:45;100992.78;;;13.64;57.47
70976;BME280;58635;51.198;6.010;2023-02-22T10:48:15;100983.56;;;13.68;57.06
70976;BME280;58635;51.198;6.010;2023-02-22T10:50:44;100982.72;;;13.74;57.13
70976;BME280;58635;51.198;6.010;2023-02-22T10:53:11;100982.69;;;13.81;57.21
70976;BME280;58635;51.198;6.010;2023-02-22T10:56:07;100990.25;;;13.89;56.87
70976;BME280;58635;51.198;6.010;2023-02-22T10:58:51;100988.38;;;13.96;56.85
70976;BME280;58635;51.198;6.010;2023-02-22T11:01:26;100989.72;;;14.05;56.64
70976;BME280;58635;51.198;6.010;2023-02-22T11:06:27;100984.41;;;14.19;56.29
70976;BME280;58635;51.198;6.010;2023-02-22T11:09:04;100987.56;;;14.27;55.95
70976;BME280;58635;51.198;6.010;2023-02-22T11:11:30;100984.91;;;14.34;55.88
70976;BME280;58635;51.198;6.010;2023-02-22T11:13:56;100980.44;;;14.41;55.76
70976;BME280;58635;51.198;6.010;2023-02-22T11:19:00;100980.72;;;14.58;55.26
70976;BME280;58635;51.198;6.010;2023-02-22T11:21:28;100985.66;;;14.66;55.15
70976;BME280;58635;51.198;6.010;2023-02-22T11:24:04;100969.19;;;14.72;54.58
70976;BME280;58635;51.198;6.010;2023-02-22T11:26:40;100966.50;;;14.79;54.62
70976;BME280;58635;51.198;6.010;2023-02-22T11:29:14;100963.25;;;14.83;54.29
70976;BME280;58635;51.198;6.010;2023-02-22T11:31:44;100973.38;;;14.91;54.08
70976;BME280;58635;51.198;6.010;2023-02-22T11:36:52;100964.25;;;15.01;53.51
70976;BME280;58635;51.198;6.010;2023-02-22T11:39:22;100964.19;;;15.07;53.39
70976;BME280;58635;51.198;6.010;2023-02-22T11:41:49;100957.31;;;15.13;53.32
70976;BME280;58635;51.198;6.010;2023-02-22T11:44:25;100955.41;;;15.20;53.27
70976;BME280;58635;51.198;6.010;2023-02-22T11:46:53;100955.53;;;15.25;53.00
70976;BME280;58635;51.198;6.010;2023-02-22T11:49:22;100941.66;;;15.31;52.93
70976;BME280;58635;51.198;6.010;2023-02-22T11:55:00;100949.63;;;15.48;52.71
70976;BME280;58635;51.198;6.010;2023-02-22T11:57:43;100946.16;;;15.54;52.72
70976;BME280;58635;51.198;6.010;2023-02-22T12:00:18;100941.25;;;15.64;52.72
70976;BME280;58635;51.198;6.010;2023-02-22T12:11:04;100942.44;;;15.92;53.01
70976;BME280;58635;51.198;6.010;2023-02-22T12:16:45;100946.06;;;16.02;52.13
70976;BME280;58635;51.198;6.010;2023-02-22T12:21:57;100943.16;;;16.11;52.23
70976;BME280;58635;51.198;6.010;2023-02-22T12:24:29;100934.41;;;16.17;52.10
70976;BME280;58635;51.198;6.010;2023-02-22T12:27:30;100940.75;;;16.21;52.08
70976;BME280;58635;51.198;6.010;2023-02-22T12:30:02;100940.41;;;16.29;51.84
70976;BME280;58635;51.198;6.010;2023-02-22T12:32:40;100930.09;;;16.34;51.67
70976;BME280;58635;51.198;6.010;2023-02-22T12:38:03;100929.75;;;16.42;51.43
70976;BME280;58635;51.198;6.010;2023-02-22T12:40:48;100935.09;;;16.47;51.12
70976;BME280;58635;51.198;6.010;2023-02-22T12:43:28;100936.44;;;16.50;51.15
70976;BME280;58635;51.198;6.010;2023-02-22T12:46:18;100932.47;;;16.47;50.87
70976;BME280;58635;51.198;6.010;2023-02-22T12:48:51;100931.44;;;16.48;51.10
70976;BME280;58635;51.198;6.010;2023-02-22T12:56:36;100930.88;;;16.58;50.94
70976;BME280;58635;51.198;6.010;2023-02-22T12:59:09;100933.03;;;16.61;50.67
70976;BME280;58635;51.198;6.010;2023-02-22T13:01:42;100925.28;;;16.66;50.99
70976;BME280;58635;51.198;6.010;2023-02-22T13:04:10;100930.53;;;16.78;50.66
70976;BME280;58635;51.198;6.010;2023-02-22T13:24:42;100916.84;;;17.56;49.62
70976;BME280;58635;51.198;6.010;2023-02-22T13:27:18;100917.78;;;17.67;49.70
70976;BME280;58635;51.198;6.010;2023-02-22T13:29:52;100911.31;;;17.69;49.79
70976;BME280;58635;51.198;6.010;2023-02-22T13:49:23;100898.31;;;17.74;49.69
70976;BME280;58635;51.198;6.010;2023-02-22T13:51:57;100907.75;;;17.75;49.58
70976;BME280;58635;51.198;6.010;2023-02-22T13:54:39;100906.09;;;17.69;49.63
70976;BME280;58635;51.198;6.010;2023-02-22T13:57:21;100904.72;;;17.67;49.76
70976;BME280;58635;51.198;6.010;2023-02-22T13:59:47;100898.84;;;17.60;49.97
70976;BME280;58635;51.198;6.010;2023-02-22T14:03:04;100905.22;;;17.52;49.82
70976;BME280;58635;51.198;6.010;2023-02-22T14:08:04;100901.88;;;17.40;50.60
70976;BME280;58635;51.198;6.010;2023-02-22T14:10:36;100901.81;;;17.35;50.54
70976;BME280;58635;51.198;6.010;2023-02-22T14:13:05;100910.13;;;17.32;50.68
70976;BME280;58635;51.198;6.010;2023-02-22T14:15:31;100909.22;;;17.26;50.77
70976;BME280;58635;51.198;6.010;2023-02-22T14:18:00;100910.41;;;17.18;50.96
70976;BME280;58635;51.198;6.010;2023-02-22T14:20:32;100911.66;;;17.16;51.07
70976;BME280;58635;51.198;6.010;2023-02-22T14:25:47;100923.09;;;16.98;51.61
70976;BME280;58635;51.198;6.010;2023-02-22T14:31:14;100925.50;;;16.88;51.50
70976;BME280;58635;51.198;6.010;2023-02-22T14:36:35;100924.75;;;16.76;52.01
70976;BME280;58635;51.198;6.010;2023-02-22T14:39:16;100922.69;;;16.78;51.70
70976;BME280;58635;51.198;6.010;2023-02-22T14:41:50;100920.31;;;16.76;51.91
70976;BME280;58635;51.198;6.010;2023-02-22T14:44:29;100926.88;;;16.79;51.93
70976;BME280;58635;51.198;6.010;2023-02-22T14:46:59;100928.03;;;16.83;51.63
70976;BME280;58635;51.198;6.010;2023-02-22T14:49:31;100937.34;;;16.79;51.57
70976;BME280;58635;51.198;6.010;2023-02-22T14:52:16;100942.22;;;16.75;51.85
70976;BME280;58635;51.198;6.010;2023-02-22T14:55:16;100938.56;;;16.64;51.59
70976;BME280;58635;51.198;6.010;2023-02-22T14:58:02;100934.16;;;16.53;51.92
70976;BME280;58635;51.198;6.010;2023-02-22T15:03:17;100941.53;;;16.45;52.17
70976;BME280;58635;51.198;6.010;2023-02-22T15:05:43;100944.84;;;16.40;52.18
70976;BME280;58635;51.198;6.010;2023-02-22T15:08:09;100942.47;;;16.38;52.20
70976;BME280;58635;51.198;6.010;2023-02-22T15:10:43;100938.13;;;16.32;52.72
70976;BME280;58635;51.198;6.010;2023-02-22T15:13:21;100941.34;;;16.34;52.70